sensor_id;sensor_type;location;lat;lon;timestamp;P1;durP1;ratioP1;P2;durP2;ratioP2
43807;SDS011;29438;50.664;10.098;2023-01-26T00:00:58;20.42;;;5.10;;
43807;SDS011;29438;50.664;10.098;2023-01-26T00:03:24;17.10;;;4.20;;
43807;SDS011;29438;50.664;10.098;2023-01-26T00:05:49;18.98;;;5.00;;
43807;SDS011;29438;50.664;10.098;2023-01-26T00:08:15;17.17;;;4.18;;
43807;SDS011;29438;50.664;10.098;2023-01-26T00:10:41;18.20;;;5.32;;
43807;SDS011;29438;50.664;10.098;2023-01-26T00:13:14;19.50;;;3.92;;
43807;SDS011;29438;50.664;10.098;2023-01-26T00:15:41;14.45;;;3.97;;
43807;SDS011;29438;50.664;10.098;2023-01-26T00:18:07;17.02;;;4.53;;
43807;SDS011;29438;50.664;10.098;2023-01-26T00:20:33;16.48;;;4.65;;
43807;SDS011;29438;50.664;10.098;2023-01-26T00:22:59;17.23;;;4.88;;
43807;SDS011;29438;50.664;10.098;2023-01-26T00:25:24;19.75;;;4.90;;
43807;SDS011;29438;50.664;10.098;2023-01-26T00:27:50;17.83;;;5.10;;
43807;SDS011;29438;50.664;10.098;2023-01-26T00:30:15;23.33;;;6.05;;
43807;SDS011;29438;50.664;10.098;2023-01-26T00:32:41;18.83;;;4.68;;
43807;SDS011;29438;50.664;10.098;2023-01-26T00:35:07;19.35;;;5.00;;
43807;SDS011;29438;50.664;10.098;2023-01-26T00:37:33;18.23;;;5.43;;
43807;SDS011;29438;50.664;10.098;2023-01-26T00:39:58;20.10;;;5.18;;
43807;SDS011;29438;50.664;10.098;2023-01-26T00:42:24;22.63;;;4.30;;
43807;SDS011;29438;50.664;10.098;2023-01-26T00:44:49;20.33;;;4.80;;
43807;SDS011;29438;50.664;10.098;2023-01-26T00:47:16;23.05;;;5.00;;
43807;SDS011;29438;50.664;10.098;2023-01-26T00:49:42;18.83;;;4.97;;
43807;SDS011;29438;50.664;10.098;2023-01-26T00:52:08;15.30;;;4.22;;
43807;SDS011;29438;50.664;10.098;2023-01-26T00:54:34;18.17;;;5.35;;
43807;SDS011;29438;50.664;10.098;2023-01-26T00:56:59;23.73;;;4.90;;
43807;SDS011;29438;50.664;10.098;2023-01-26T00:59:25;17.38;;;3.92;;
43807;SDS011;29438;50.664;10.098;2023-01-26T01:01:51;21.95;;;4.30;;
43807;SDS011;29438;50.664;10.098;2023-01-26T01:04:17;19.55;;;5.15;;
43807;SDS011;29438;50.664;10.098;2023-01-26T01:06:43;20.08;;;5.22;;
43807;SDS011;29438;50.664;10.098;2023-01-26T01:09:08;20.63;;;4.95;;
43807;SDS011;29438;50.664;10.098;2023-01-26T01:11:34;19.05;;;4.78;;
43807;SDS011;29438;50.664;10.098;2023-01-26T01:13:59;20.05;;;5.35;;
43807;SDS011;29438;50.664;10.098;2023-01-26T01:16:25;22.13;;;5.07;;
43807;SDS011;29438;50.664;10.098;2023-01-26T01:18:52;18.15;;;5.72;;
43807;SDS011;29438;50.664;10.098;2023-01-26T01:21:18;21.02;;;5.93;;
43807;SDS011;29438;50.664;10.098;2023-01-26T01:23:44;19.98;;;4.47;;
43807;SDS011;29438;50.664;10.098;2023-01-26T01:26:10;19.77;;;5.18;;
43807;SDS011;29438;50.664;10.098;2023-01-26T01:28:36;16.33;;;4.93;;
43807;SDS011;29438;50.664;10.098;2023-01-26T01:31:06;17.75;;;5.05;;
43807;SDS011;29438;50.664;10.098;2023-01-26T01:33:33;21.73;;;5.07;;
43807;SDS011;29438;50.664;10.098;2023-01-26T01:36:00;21.58;;;5.00;;
43807;SDS011;29438;50.664;10.098;2023-01-26T01:38:27;21.08;;;4.95;;
43807;SDS011;29438;50.664;10.098;2023-01-26T01:40:53;22.25;;;5.35;;
43807;SDS011;29438;50.664;10.098;2023-01-26T01:43:20;19.08;;;5.03;;
43807;SDS011;29438;50.664;10.098;2023-01-26T01:45:47;23.48;;;5.50;;
43807;SDS011;29438;50.664;10.098;2023-01-26T01:48:18;25.15;;;4.85;;
43807;SDS011;29438;50.664;10.098;2023-01-26T01:50:53;16.90;;;4.78;;
43807;SDS011;29438;50.664;10.098;2023-01-26T01:53:23;18.70;;;5.38;;
43807;SDS011;29438;50.664;10.098;2023-01-26T01:55:54;22.10;;;5.60;;
43807;SDS011;29438;50.664;10.098;2023-01-26T01:58:23;28.70;;;5.55;;
43807;SDS011;29438;50.664;10.098;2023-01-26T02:00:50;22.83;;;4.90;;
43807;SDS011;29438;50.664;10.098;2023-01-26T02:03:16;19.42;;;4.75;;
43807;SDS011;29438;50.664;10.098;2023-01-26T02:08:37;17.92;;;4.78;;
43807;SDS011;29438;50.664;10.098;2023-01-26T02:13:58;23.40;;;5.25;;
43807;SDS011;29438;50.664;10.098;2023-01-26T02:16:26;20.77;;;5.07;;
43807;SDS011;29438;50.664;10.098;2023-01-26T02:18:52;21.23;;;4.82;;
43807;SDS011;29438;50.664;10.098;2023-01-26T02:21:21;22.92;;;5.43;;
43807;SDS011;29438;50.664;10.098;2023-01-26T02:23:56;28.92;;;5.35;;
43807;SDS011;29438;50.664;10.098;2023-01-26T02:26:33;19.55;;;5.35;;
43807;SDS011;29438;50.664;10.098;2023-01-26T02:29:01;21.58;;;5.43;;
43807;SDS011;29438;50.664;10.098;2023-01-26T02:31:28;22.92;;;5.97;;
43807;SDS011;29438;50.664;10.098;2023-01-26T02:33:54;16.02;;;4.38;;
43807;SDS011;29438;50.664;10.098;2023-01-26T02:36:21;21.48;;;5.57;;
43807;SDS011;29438;50.664;10.098;2023-01-26T02:38:57;15.90;;;4.65;;
43807;SDS011;29438;50.664;10.098;2023-01-26T02:41:26;18.45;;;3.35;;
43807;SDS011;29438;50.664;10.098;2023-01-26T02:44:10;11.15;;;2.95;;
43807;SDS011;29438;50.664;10.098;2023-01-26T02:46:37;12.93;;;3.58;;
43807;SDS011;29438;50.664;10.098;2023-01-26T02:49:03;17.58;;;4.00;;
43807;SDS011;29438;50.664;10.098;2023-01-26T02:51:47;15.43;;;3.60;;
43807;SDS011;29438;50.664;10.098;2023-01-26T02:54:13;9.60;;;2.83;;
43807;SDS011;29438;50.664;10.098;2023-01-26T02:56:58;12.85;;;3.63;;
43807;SDS011;29438;50.664;10.098;2023-01-26T02:59:24;13.02;;;4.10;;
43807;SDS011;29438;50.664;10.098;2023-01-26T03:01:49;13.25;;;3.42;;
43807;SDS011;29438;50.664;10.098;2023-01-26T03:04:16;12.07;;;2.88;;
43807;SDS011;29438;50.664;10.098;2023-01-26T03:06:41;21.48;;;3.92;;
43807;SDS011;29438;50.664;10.098;2023-01-26T03:09:06;14.07;;;3.85;;
43807;SDS011;29438;50.664;10.098;2023-01-26T03:11:32;9.60;;;2.75;;
43807;SDS011;29438;50.664;10.098;2023-01-26T03:14:06;11.00;;;2.55;;
43807;SDS011;29438;50.664;10.098;2023-01-26T03:16:32;13.45;;;3.45;;
43807;SDS011;29438;50.664;10.098;2023-01-26T03:18:57;14.98;;;3.60;;
43807;SDS011;29438;50.664;10.098;2023-01-26T03:21:29;4.97;;;1.75;;
43807;SDS011;29438;50.664;10.098;2023-01-26T03:24:14;11.40;;;3.42;;
43807;SDS011;29438;50.664;10.098;2023-01-26T03:26:59;10.23;;;2.75;;
43807;SDS011;29438;50.664;10.098;2023-01-26T03:29:43;13.10;;;2.50;;
43807;SDS011;29438;50.664;10.098;2023-01-26T03:32:09;9.05;;;3.17;;
43807;SDS011;29438;50.664;10.098;2023-01-26T03:34:35;14.20;;;3.25;;
43807;SDS011;29438;50.664;10.098;2023-01-26T03:37:01;14.75;;;3.08;;
43807;SDS011;29438;50.664;10.098;2023-01-26T03:39:27;10.10;;;2.47;;
43807;SDS011;29438;50.664;10.098;2023-01-26T03:42:11;15.27;;;3.47;;
43807;SDS011;29438;50.664;10.098;2023-01-26T03:44:56;14.25;;;2.85;;
43807;SDS011;29438;50.664;10.098;2023-01-26T03:50:24;12.60;;;3.20;;
43807;SDS011;29438;50.664;10.098;2023-01-26T03:55:56;8.10;;;2.45;;
43807;SDS011;29438;50.664;10.098;2023-01-26T03:58:39;9.85;;;3.28;;
43807;SDS011;29438;50.664;10.098;2023-01-26T04:01:05;8.85;;;2.85;;
43807;SDS011;29438;50.664;10.098;2023-01-26T04:03:30;9.45;;;2.65;;
43807;SDS011;29438;50.664;10.098;2023-01-26T04:06:14;11.85;;;3.25;;
43807;SDS011;29438;50.664;10.098;2023-01-26T04:11:24;9.50;;;2.65;;
43807;SDS011;29438;50.664;10.098;2023-01-26T04:13:49;11.27;;;2.70;;
43807;SDS011;29438;50.664;10.098;2023-01-26T04:16:34;10.93;;;2.67;;
43807;SDS011;29438;50.664;10.098;2023-01-26T04:19:18;6.35;;;2.60;;
43807;SDS011;29438;50.664;10.098;2023-01-26T04:24:27;4.65;;;1.67;;
43807;SDS011;29438;50.664;10.098;2023-01-26T04:26:53;9.63;;;2.35;;
43807;SDS011;29438;50.664;10.098;2023-01-26T04:29:18;3.92;;;1.83;;
43807;SDS011;29438;50.664;10.098;2023-01-26T04:31:44;9.60;;;2.17;;
43807;SDS011;29438;50.664;10.098;2023-01-26T04:34:10;10.98;;;2.95;;
43807;SDS011;29438;50.664;10.098;2023-01-26T04:36:38;10.75;;;2.35;;
43807;SDS011;29438;50.664;10.098;2023-01-26T04:39:04;6.60;;;2.63;;
43807;SDS011;29438;50.664;10.098;2023-01-26T04:41:30;8.75;;;3.38;;
43807;SDS011;29438;50.664;10.098;2023-01-26T04:43:56;7.13;;;3.28;;
43807;SDS011;29438;50.664;10.098;2023-01-26T04:46:22;7.53;;;2.65;;
43807;SDS011;29438;50.664;10.098;2023-01-26T04:48:48;9.30;;;2.85;;
43807;SDS011;29438;50.664;10.098;2023-01-26T04:51:15;8.77;;;2.45;;
43807;SDS011;29438;50.664;10.098;2023-01-26T04:53:43;8.93;;;2.50;;
43807;SDS011;29438;50.664;10.098;2023-01-26T04:56:14;9.15;;;3.10;;
43807;SDS011;29438;50.664;10.098;2023-01-26T04:58:53;10.90;;;2.60;;
43807;SDS011;29438;50.664;10.098;2023-01-26T05:01:19;6.93;;;2.15;;
43807;SDS011;29438;50.664;10.098;2023-01-26T05:03:45;8.13;;;2.58;;
43807;SDS011;29438;50.664;10.098;2023-01-26T05:06:11;8.25;;;2.85;;
43807;SDS011;29438;50.664;10.098;2023-01-26T05:08:37;9.32;;;2.58;;
43807;SDS011;29438;50.664;10.098;2023-01-26T05:11:03;10.07;;;2.63;;
43807;SDS011;29438;50.664;10.098;2023-01-26T05:13:29;10.25;;;2.60;;
43807;SDS011;29438;50.664;10.098;2023-01-26T05:15:55;9.60;;;2.10;;
43807;SDS011;29438;50.664;10.098;2023-01-26T05:18:20;7.55;;;2.25;;
43807;SDS011;29438;50.664;10.098;2023-01-26T05:20:46;7.05;;;1.80;;
43807;SDS011;29438;50.664;10.098;2023-01-26T05:23:12;10.68;;;2.88;;
43807;SDS011;29438;50.664;10.098;2023-01-26T05:25:37;8.85;;;2.70;;
43807;SDS011;29438;50.664;10.098;2023-01-26T05:28:03;7.45;;;2.05;;
43807;SDS011;29438;50.664;10.098;2023-01-26T05:30:29;9.10;;;1.92;;
43807;SDS011;29438;50.664;10.098;2023-01-26T05:32:59;6.80;;;1.92;;
43807;SDS011;29438;50.664;10.098;2023-01-26T05:35:26;9.15;;;2.40;;
43807;SDS011;29438;50.664;10.098;2023-01-26T05:37:51;8.80;;;1.95;;
43807;SDS011;29438;50.664;10.098;2023-01-26T05:40:17;6.85;;;2.38;;
43807;SDS011;29438;50.664;10.098;2023-01-26T05:42:42;5.93;;;2.03;;
43807;SDS011;29438;50.664;10.098;2023-01-26T05:45:08;6.82;;;2.40;;
43807;SDS011;29438;50.664;10.098;2023-01-26T05:47:34;7.93;;;2.30;;
43807;SDS011;29438;50.664;10.098;2023-01-26T05:49:59;7.47;;;1.70;;
43807;SDS011;29438;50.664;10.098;2023-01-26T05:52:25;9.02;;;2.53;;
43807;SDS011;29438;50.664;10.098;2023-01-26T05:54:50;9.18;;;2.17;;
43807;SDS011;29438;50.664;10.098;2023-01-26T05:57:17;7.10;;;1.70;;
43807;SDS011;29438;50.664;10.098;2023-01-26T05:59:42;10.15;;;3.05;;
43807;SDS011;29438;50.664;10.098;2023-01-26T06:02:08;9.02;;;2.97;;
43807;SDS011;29438;50.664;10.098;2023-01-26T06:04:35;10.10;;;2.50;;
43807;SDS011;29438;50.664;10.098;2023-01-26T06:07:00;12.80;;;2.97;;
43807;SDS011;29438;50.664;10.098;2023-01-26T06:09:26;6.90;;;2.50;;
43807;SDS011;29438;50.664;10.098;2023-01-26T06:11:51;10.55;;;2.88;;
43807;SDS011;29438;50.664;10.098;2023-01-26T06:14:17;5.65;;;1.67;;
43807;SDS011;29438;50.664;10.098;2023-01-26T06:16:42;10.52;;;2.22;;
43807;SDS011;29438;50.664;10.098;2023-01-26T06:19:08;10.77;;;2.42;;
43807;SDS011;29438;50.664;10.098;2023-01-26T06:21:35;8.38;;;2.25;;
43807;SDS011;29438;50.664;10.098;2023-01-26T06:24:01;7.32;;;2.00;;
43807;SDS011;29438;50.664;10.098;2023-01-26T06:26:27;8.82;;;2.10;;
43807;SDS011;29438;50.664;10.098;2023-01-26T06:28:52;9.35;;;2.90;;
43807;SDS011;29438;50.664;10.098;2023-01-26T06:31:18;10.88;;;3.15;;
43807;SDS011;29438;50.664;10.098;2023-01-26T06:33:45;6.95;;;2.35;;
43807;SDS011;29438;50.664;10.098;2023-01-26T06:36:12;6.90;;;1.98;;
43807;SDS011;29438;50.664;10.098;2023-01-26T06:38:38;7.75;;;2.13;;
43807;SDS011;29438;50.664;10.098;2023-01-26T06:41:13;7.05;;;2.47;;
43807;SDS011;29438;50.664;10.098;2023-01-26T06:43:39;8.57;;;2.70;;
43807;SDS011;29438;50.664;10.098;2023-01-26T06:46:12;8.07;;;2.67;;
43807;SDS011;29438;50.664;10.098;2023-01-26T06:48:38;11.95;;;2.95;;
43807;SDS011;29438;50.664;10.098;2023-01-26T06:53:48;12.27;;;3.30;;
43807;SDS011;29438;50.664;10.098;2023-01-26T06:56:16;9.30;;;2.23;;
43807;SDS011;29438;50.664;10.098;2023-01-26T06:58:42;9.93;;;2.55;;
43807;SDS011;29438;50.664;10.098;2023-01-26T07:01:09;10.90;;;2.13;;
43807;SDS011;29438;50.664;10.098;2023-01-26T07:03:46;6.88;;;1.88;;
43807;SDS011;29438;50.664;10.098;2023-01-26T07:06:12;9.65;;;2.47;;
43807;SDS011;29438;50.664;10.098;2023-01-26T07:08:38;6.63;;;2.30;;
43807;SDS011;29438;50.664;10.098;2023-01-26T07:11:04;8.48;;;2.50;;
43807;SDS011;29438;50.664;10.098;2023-01-26T07:13:30;9.57;;;3.28;;
43807;SDS011;29438;50.664;10.098;2023-01-26T07:16:02;11.90;;;3.30;;
43807;SDS011;29438;50.664;10.098;2023-01-26T07:18:32;7.22;;;2.28;;
43807;SDS011;29438;50.664;10.098;2023-01-26T07:21:31;10.02;;;2.35;;
43807;SDS011;29438;50.664;10.098;2023-01-26T07:23:50;13.63;;;3.63;;
43807;SDS011;29438;50.664;10.098;2023-01-26T07:26:17;11.25;;;3.30;;
43807;SDS011;29438;50.664;10.098;2023-01-26T07:28:42;7.72;;;2.20;;
43807;SDS011;29438;50.664;10.098;2023-01-26T07:31:09;11.65;;;3.50;;
43807;SDS011;29438;50.664;10.098;2023-01-26T07:33:35;8.68;;;2.70;;
43807;SDS011;29438;50.664;10.098;2023-01-26T07:36:01;9.35;;;3.08;;
43807;SDS011;29438;50.664;10.098;2023-01-26T07:38:28;15.98;;;3.45;;
43807;SDS011;29438;50.664;10.098;2023-01-26T07:40:54;11.13;;;3.17;;
43807;SDS011;29438;50.664;10.098;2023-01-26T07:43:20;13.48;;;3.33;;
43807;SDS011;29438;50.664;10.098;2023-01-26T07:45:46;11.00;;;2.72;;
43807;SDS011;29438;50.664;10.098;2023-01-26T07:48:15;9.43;;;3.05;;
43807;SDS011;29438;50.664;10.098;2023-01-26T07:50:41;8.02;;;2.45;;
43807;SDS011;29438;50.664;10.098;2023-01-26T07:53:06;14.15;;;3.63;;
43807;SDS011;29438;50.664;10.098;2023-01-26T07:55:33;10.30;;;3.08;;
43807;SDS011;29438;50.664;10.098;2023-01-26T07:57:59;11.38;;;3.78;;
43807;SDS011;29438;50.664;10.098;2023-01-26T08:00:25;11.50;;;3.45;;
43807;SDS011;29438;50.664;10.098;2023-01-26T08:02:50;12.05;;;3.30;;
43807;SDS011;29438;50.664;10.098;2023-01-26T08:05:16;12.02;;;2.97;;
43807;SDS011;29438;50.664;10.098;2023-01-26T08:07:42;8.68;;;1.63;;
43807;SDS011;29438;50.664;10.098;2023-01-26T08:10:08;13.68;;;3.67;;
43807;SDS011;29438;50.664;10.098;2023-01-26T08:12:34;10.32;;;2.60;;
43807;SDS011;29438;50.664;10.098;2023-01-26T08:15:00;9.80;;;2.13;;
43807;SDS011;29438;50.664;10.098;2023-01-26T08:17:27;9.65;;;2.38;;
43807;SDS011;29438;50.664;10.098;2023-01-26T08:19:53;9.60;;;3.17;;
43807;SDS011;29438;50.664;10.098;2023-01-26T08:22:18;8.68;;;2.90;;
43807;SDS011;29438;50.664;10.098;2023-01-26T08:24:44;6.60;;;2.70;;
43807;SDS011;29438;50.664;10.098;2023-01-26T08:27:09;6.18;;;1.85;;
43807;SDS011;29438;50.664;10.098;2023-01-26T08:29:35;5.40;;;2.20;;
43807;SDS011;29438;50.664;10.098;2023-01-26T08:32:01;7.30;;;1.80;;
43807;SDS011;29438;50.664;10.098;2023-01-26T08:34:26;7.25;;;2.17;;
43807;SDS011;29438;50.664;10.098;2023-01-26T08:36:52;6.97;;;2.55;;
43807;SDS011;29438;50.664;10.098;2023-01-26T08:39:17;7.43;;;1.92;;
43807;SDS011;29438;50.664;10.098;2023-01-26T08:41:43;5.63;;;2.00;;
43807;SDS011;29438;50.664;10.098;2023-01-26T08:44:09;8.82;;;1.80;;
43807;SDS011;29438;50.664;10.098;2023-01-26T08:46:35;5.97;;;2.00;;
43807;SDS011;29438;50.664;10.098;2023-01-26T08:49:00;9.10;;;2.03;;
43807;SDS011;29438;50.664;10.098;2023-01-26T08:51:26;10.38;;;2.80;;
43807;SDS011;29438;50.664;10.098;2023-01-26T08:53:52;9.15;;;2.58;;
43807;SDS011;29438;50.664;10.098;2023-01-26T08:56:18;8.38;;;1.92;;
43807;SDS011;29438;50.664;10.098;2023-01-26T08:58:44;7.32;;;2.05;;
43807;SDS011;29438;50.664;10.098;2023-01-26T09:01:10;7.82;;;2.40;;
43807;SDS011;29438;50.664;10.098;2023-01-26T09:03:37;8.82;;;2.67;;
43807;SDS011;29438;50.664;10.098;2023-01-26T09:06:03;11.60;;;3.08;;
43807;SDS011;29438;50.664;10.098;2023-01-26T09:08:29;11.13;;;3.58;;
43807;SDS011;29438;50.664;10.098;2023-01-26T09:10:55;10.75;;;3.38;;
43807;SDS011;29438;50.664;10.098;2023-01-26T09:13:21;10.93;;;3.45;;
43807;SDS011;29438;50.664;10.098;2023-01-26T09:15:47;11.60;;;3.67;;
43807;SDS011;29438;50.664;10.098;2023-01-26T09:18:12;13.10;;;3.85;;
43807;SDS011;29438;50.664;10.098;2023-01-26T09:20:38;12.90;;;3.78;;
43807;SDS011;29438;50.664;10.098;2023-01-26T09:23:04;9.05;;;3.83;;
43807;SDS011;29438;50.664;10.098;2023-01-26T09:25:29;11.77;;;4.03;;
43807;SDS011;29438;50.664;10.098;2023-01-26T09:27:55;12.07;;;3.92;;
43807;SDS011;29438;50.664;10.098;2023-01-26T09:30:21;10.27;;;3.70;;
43807;SDS011;29438;50.664;10.098;2023-01-26T09:32:48;12.02;;;4.07;;
43807;SDS011;29438;50.664;10.098;2023-01-26T09:35:14;11.32;;;3.78;;
43807;SDS011;29438;50.664;10.098;2023-01-26T09:37:40;13.68;;;4.25;;
43807;SDS011;29438;50.664;10.098;2023-01-26T09:40:08;12.07;;;3.33;;
43807;SDS011;29438;50.664;10.098;2023-01-26T09:42:56;6.97;;;2.70;;
43807;SDS011;29438;50.664;10.098;2023-01-26T09:45:48;10.02;;;3.72;;
43807;SDS011;29438;50.664;10.098;2023-01-26T09:48:22;9.00;;;3.58;;
43807;SDS011;29438;50.664;10.098;2023-01-26T09:51:00;7.80;;;3.13;;
43807;SDS011;29438;50.664;10.098;2023-01-26T09:53:43;9.38;;;3.40;;
43807;SDS011;29438;50.664;10.098;2023-01-26T09:56:18;8.55;;;2.80;;
43807;SDS011;29438;50.664;10.098;2023-01-26T09:58:47;9.55;;;3.40;;
43807;SDS011;29438;50.664;10.098;2023-01-26T10:01:24;10.15;;;3.55;;
43807;SDS011;29438;50.664;10.098;2023-01-26T10:03:59;9.38;;;3.60;;
43807;SDS011;29438;50.664;10.098;2023-01-26T10:06:34;10.40;;;3.67;;
43807;SDS011;29438;50.664;10.098;2023-01-26T10:09:05;8.25;;;3.00;;
43807;SDS011;29438;50.664;10.098;2023-01-26T10:11:39;9.57;;;3.78;;
43807;SDS011;29438;50.664;10.098;2023-01-26T10:14:14;8.55;;;3.15;;
43807;SDS011;29438;50.664;10.098;2023-01-26T10:16:46;8.93;;;3.55;;
43807;SDS011;29438;50.664;10.098;2023-01-26T10:19:26;7.68;;;2.75;;
43807;SDS011;29438;50.664;10.098;2023-01-26T10:22:04;8.13;;;3.17;;
43807;SDS011;29438;50.664;10.098;2023-01-26T10:24:36;7.78;;;3.05;;
43807;SDS011;29438;50.664;10.098;2023-01-26T10:27:05;12.50;;;3.97;;
43807;SDS011;29438;50.664;10.098;2023-01-26T10:29:37;11.45;;;3.72;;
43807;SDS011;29438;50.664;10.098;2023-01-26T10:32:03;8.43;;;3.42;;
43807;SDS011;29438;50.664;10.098;2023-01-26T10:34:29;7.28;;;3.10;;
43807;SDS011;29438;50.664;10.098;2023-01-26T10:37:01;8.13;;;2.88;;
43807;SDS011;29438;50.664;10.098;2023-01-26T10:40:00;18.48;;;5.65;;
43807;SDS011;29438;50.664;10.098;2023-01-26T10:42:29;12.27;;;4.35;;
43807;SDS011;29438;50.664;10.098;2023-01-26T10:44:57;12.05;;;3.97;;
43807;SDS011;29438;50.664;10.098;2023-01-26T10:47:26;9.50;;;2.90;;
43807;SDS011;29438;50.664;10.098;2023-01-26T10:49:52;11.10;;;3.38;;
43807;SDS011;29438;50.664;10.098;2023-01-26T10:52:37;16.10;;;6.03;;
43807;SDS011;29438;50.664;10.098;2023-01-26T10:55:09;15.85;;;5.70;;
43807;SDS011;29438;50.664;10.098;2023-01-26T10:57:38;15.27;;;5.22;;
43807;SDS011;29438;50.664;10.098;2023-01-26T11:00:05;10.88;;;4.13;;
43807;SDS011;29438;50.664;10.098;2023-01-26T11:02:48;10.40;;;3.95;;
43807;SDS011;29438;50.664;10.098;2023-01-26T11:05:22;12.70;;;4.72;;
43807;SDS011;29438;50.664;10.098;2023-01-26T11:07:50;14.43;;;4.28;;
43807;SDS011;29438;50.664;10.098;2023-01-26T11:10:23;13.25;;;4.65;;
43807;SDS011;29438;50.664;10.098;2023-01-26T11:13:13;10.10;;;4.20;;
43807;SDS011;29438;50.664;10.098;2023-01-26T11:15:42;11.25;;;4.50;;
43807;SDS011;29438;50.664;10.098;2023-01-26T11:18:21;14.32;;;4.43;;
43807;SDS011;29438;50.664;10.098;2023-01-26T11:21:24;14.90;;;4.68;;
43807;SDS011;29438;50.664;10.098;2023-01-26T11:26:35;12.85;;;5.05;;
43807;SDS011;29438;50.664;10.098;2023-01-26T11:34:23;15.98;;;5.07;;
43807;SDS011;29438;50.664;10.098;2023-01-26T11:40:06;14.15;;;5.32;;
43807;SDS011;29438;50.664;10.098;2023-01-26T11:48:26;16.17;;;5.20;;
43807;SDS011;29438;50.664;10.098;2023-01-26T11:51:49;17.15;;;5.43;;
43807;SDS011;29438;50.664;10.098;2023-01-26T11:54:18;17.67;;;6.20;;
43807;SDS011;29438;50.664;10.098;2023-01-26T11:57:05;15.75;;;5.07;;
43807;SDS011;29438;50.664;10.098;2023-01-26T11:59:37;16.35;;;4.80;;
43807;SDS011;29438;50.664;10.098;2023-01-26T12:04:58;14.15;;;5.05;;
43807;SDS011;29438;50.664;10.098;2023-01-26T12:07:31;15.38;;;5.28;;
43807;SDS011;29438;50.664;10.098;2023-01-26T12:10:15;18.38;;;5.80;;
43807;SDS011;29438;50.664;10.098;2023-01-26T12:12:45;16.13;;;5.63;;
43807;SDS011;29438;50.664;10.098;2023-01-26T12:15:19;12.90;;;5.35;;
43807;SDS011;29438;50.664;10.098;2023-01-26T12:26:02;16.15;;;4.32;;
43807;SDS011;29438;50.664;10.098;2023-01-26T12:31:25;11.68;;;4.20;;
43807;SDS011;29438;50.664;10.098;2023-01-26T12:33:57;12.70;;;3.63;;
43807;SDS011;29438;50.664;10.098;2023-01-26T12:39:02;9.63;;;3.65;;
43807;SDS011;29438;50.664;10.098;2023-01-26T12:41:36;14.10;;;4.30;;
43807;SDS011;29438;50.664;10.098;2023-01-26T12:46:49;16.50;;;5.20;;
43807;SDS011;29438;50.664;10.098;2023-01-26T12:49:20;10.07;;;3.72;;
43807;SDS011;29438;50.664;10.098;2023-01-26T12:52:04;7.55;;;3.03;;
43807;SDS011;29438;50.664;10.098;2023-01-26T12:54:39;8.68;;;3.67;;
43807;SDS011;29438;50.664;10.098;2023-01-26T12:57:17;9.20;;;2.88;;
43807;SDS011;29438;50.664;10.098;2023-01-26T12:59:47;6.65;;;1.48;;
43807;SDS011;29438;50.664;10.098;2023-01-26T13:04:52;11.43;;;3.10;;
43807;SDS011;29438;50.664;10.098;2023-01-26T13:07:36;10.18;;;3.10;;
43807;SDS011;29438;50.664;10.098;2023-01-26T13:10:07;11.32;;;3.90;;
43807;SDS011;29438;50.664;10.098;2023-01-26T13:15:42;13.18;;;3.13;;
43807;SDS011;29438;50.664;10.098;2023-01-26T13:18:08;10.90;;;3.70;;
43807;SDS011;29438;50.664;10.098;2023-01-26T13:20:42;13.32;;;3.55;;
43807;SDS011;29438;50.664;10.098;2023-01-26T13:26:23;10.77;;;3.60;;
43807;SDS011;29438;50.664;10.098;2023-01-26T13:28:55;9.00;;;2.53;;
43807;SDS011;29438;50.664;10.098;2023-01-26T13:34:37;9.13;;;2.70;;
43807;SDS011;29438;50.664;10.098;2023-01-26T13:37:26;7.75;;;2.35;;
43807;SDS011;29438;50.664;10.098;2023-01-26T13:40:25;11.18;;;2.50;;
43807;SDS011;29438;50.664;10.098;2023-01-26T13:46:03;8.73;;;2.97;;
43807;SDS011;29438;50.664;10.098;2023-01-26T13:50:59;8.98;;;2.75;;
43807;SDS011;29438;50.664;10.098;2023-01-26T13:56:23;8.23;;;2.95;;
43807;SDS011;29438;50.664;10.098;2023-01-26T13:59:10;8.95;;;2.95;;
43807;SDS011;29438;50.664;10.098;2023-01-26T14:01:40;10.15;;;2.83;;
43807;SDS011;29438;50.664;10.098;2023-01-26T14:04:10;13.50;;;3.42;;
43807;SDS011;29438;50.664;10.098;2023-01-26T14:06:52;9.83;;;3.60;;
43807;SDS011;29438;50.664;10.098;2023-01-26T14:09:20;10.15;;;3.63;;
43807;SDS011;29438;50.664;10.098;2023-01-26T14:11:47;10.07;;;3.05;;
43807;SDS011;29438;50.664;10.098;2023-01-26T14:14:30;11.35;;;3.85;;
43807;SDS011;29438;50.664;10.098;2023-01-26T14:16:57;10.45;;;3.15;;
43807;SDS011;29438;50.664;10.098;2023-01-26T14:19:24;9.40;;;3.20;;
43807;SDS011;29438;50.664;10.098;2023-01-26T14:21:52;10.27;;;2.90;;
43807;SDS011;29438;50.664;10.098;2023-01-26T14:24:34;10.38;;;3.45;;
43807;SDS011;29438;50.664;10.098;2023-01-26T14:27:05;10.23;;;3.45;;
43807;SDS011;29438;50.664;10.098;2023-01-26T14:29:44;9.20;;;3.15;;
43807;SDS011;29438;50.664;10.098;2023-01-26T14:32:12;15.82;;;3.80;;
43807;SDS011;29438;50.664;10.098;2023-01-26T14:34:49;14.55;;;4.03;;
43807;SDS011;29438;50.664;10.098;2023-01-26T14:37:25;12.38;;;4.00;;
43807;SDS011;29438;50.664;10.098;2023-01-26T14:42:36;12.75;;;3.72;;
43807;SDS011;29438;50.664;10.098;2023-01-26T14:45:02;13.90;;;3.60;;
43807;SDS011;29438;50.664;10.098;2023-01-26T14:47:30;14.15;;;3.70;;
43807;SDS011;29438;50.664;10.098;2023-01-26T14:50:02;11.13;;;3.42;;
43807;SDS011;29438;50.664;10.098;2023-01-26T14:52:35;14.13;;;4.13;;
43807;SDS011;29438;50.664;10.098;2023-01-26T14:55:04;14.32;;;3.90;;
43807;SDS011;29438;50.664;10.098;2023-01-26T14:57:32;14.85;;;4.03;;
43807;SDS011;29438;50.664;10.098;2023-01-26T14:59:58;14.73;;;4.03;;
43807;SDS011;29438;50.664;10.098;2023-01-26T15:02:39;13.57;;;4.18;;
43807;SDS011;29438;50.664;10.098;2023-01-26T15:07:36;11.73;;;3.45;;
43807;SDS011;29438;50.664;10.098;2023-01-26T15:13:19;15.35;;;4.28;;
43807;SDS011;29438;50.664;10.098;2023-01-26T15:15:59;11.77;;;3.28;;
43807;SDS011;29438;50.664;10.098;2023-01-26T15:18:32;11.23;;;3.42;;
43807;SDS011;29438;50.664;10.098;2023-01-26T15:21:10;10.57;;;3.80;;
43807;SDS011;29438;50.664;10.098;2023-01-26T15:23:42;19.50;;;5.00;;
43807;SDS011;29438;50.664;10.098;2023-01-26T15:26:24;15.20;;;3.88;;
43807;SDS011;29438;50.664;10.098;2023-01-26T15:28:51;16.38;;;3.70;;
43807;SDS011;29438;50.664;10.098;2023-01-26T15:31:19;15.73;;;4.22;;
43807;SDS011;29438;50.664;10.098;2023-01-26T15:33:50;12.45;;;4.18;;
43807;SDS011;29438;50.664;10.098;2023-01-26T15:36:23;15.27;;;4.22;;
43807;SDS011;29438;50.664;10.098;2023-01-26T15:39:01;13.23;;;3.72;;
43807;SDS011;29438;50.664;10.098;2023-01-26T15:41:33;12.80;;;3.72;;
43807;SDS011;29438;50.664;10.098;2023-01-26T15:43:59;13.73;;;3.88;;
43807;SDS011;29438;50.664;10.098;2023-01-26T15:46:24;18.05;;;4.55;;
43807;SDS011;29438;50.664;10.098;2023-01-26T15:48:50;14.50;;;4.22;;
43807;SDS011;29438;50.664;10.098;2023-01-26T15:51:16;19.80;;;4.88;;
43807;SDS011;29438;50.664;10.098;2023-01-26T15:53:42;19.05;;;5.18;;
43807;SDS011;29438;50.664;10.098;2023-01-26T15:56:11;15.57;;;5.07;;
43807;SDS011;29438;50.664;10.098;2023-01-26T15:58:38;16.80;;;6.10;;
43807;SDS011;29438;50.664;10.098;2023-01-26T16:01:05;17.70;;;5.13;;
43807;SDS011;29438;50.664;10.098;2023-01-26T16:03:32;17.92;;;4.93;;
43807;SDS011;29438;50.664;10.098;2023-01-26T16:05:57;18.02;;;4.50;;